Time;durP1;ratioP1;P1;durP2;ratioP2;P2;SDS_P1;SDS_P2;PMS_P1;PMS_P2;Temp;Humidity;BMP_temperature;BMP_pressure;BME280_temperature;BME280_humidity;BME280_pressure;Samples;Min_cycle;Max_cycle;Signal;HPM_P1;HPM_P2
2022/09/18 00:01:48;;;;;;;6.78;1.40;;;11.80;99.90;;;;;;4897034;29;20131;-70
2022/09/18 00:04:13;;;;;;;13.90;1.80;;;11.90;99.90;;;;;;4912335;29;20029;-70
2022/09/18 00:06:41;;;;;;;8.02;1.20;;;11.90;99.90;;;;;;4913671;29;20458;-70
2022/09/18 00:09:11;;;;;;;13.80;1.42;;;11.90;99.90;;;;;;4913391;29;20044;-71
2022/09/18 00:11:42;;;;;;;19.08;1.60;;;11.80;99.90;;;;;;4913347;29;20024;-71
2022/09/18 00:14:13;;;;;;;14.55;1.63;;;11.80;99.90;;;;;;4916824;29;20513;-70
2022/09/18 00:16:39;;;;;;;12.90;1.50;;;11.90;99.90;;;;;;4917305;29;20028;-70
2022/09/18 00:19:06;;;;;;;11.48;1.42;;;11.80;99.90;;;;;;4900053;29;20028;-71
2022/09/18 00:21:34;;;;;;;10.85;1.77;;;11.90;99.90;;;;;;4916723;29;20036;-70
2022/09/18 00:24:00;;;;;;;9.77;1.35;;;11.80;99.90;;;;;;4916619;29;20055;-70
2022/09/18 00:26:26;;;;;;;10.43;2.00;;;11.80;99.90;;;;;;4916555;29;20048;-71
2022/09/18 00:28:53;;;;;;;9.32;1.48;;;11.80;99.90;;;;;;4916436;29;20445;-71
2022/09/18 00:31:24;;;;;;;6.57;1.30;;;11.80;99.90;;;;;;4900249;29;20028;-71
2022/09/18 00:33:50;;;;;;;9.25;1.40;;;11.90;99.90;;;;;;4916429;29;20127;-71
2022/09/18 00:36:17;;;;;;;6.03;1.08;;;11.80;99.90;;;;;;4916505;29;20033;-71
2022/09/18 00:38:43;;;;;;;8.05;1.50;;;11.90;99.90;;;;;;4916481;29;20445;-71
2022/09/18 00:41:15;;;;;;;13.63;1.70;;;11.90;99.90;;;;;;4916411;29;20092;-71
2022/09/18 00:43:41;;;;;;;14.27;2.15;;;11.70;99.90;;;;;;4916732;29;20110;-69
2022/09/18 00:46:22;;;;;;;10.50;1.70;;;11.80;99.90;;;;;;4915503;29;20064;-70
2022/09/18 00:49:20;;;;;;;6.43;1.23;;;11.80;99.90;;;;;;4915444;29;20032;-71
2022/09/18 00:51:47;;;;;;;;;;;11.90;99.90;;;;;;4916137;29;20047;-70
2022/09/18 00:54:21;;;;;;;17.65;2.70;;;11.90;99.90;;;;;;4899406;29;20348;-69
2022/09/18 00:56:51;;;;;;;7.60;1.38;;;11.90;99.90;;;;;;4916257;29;20444;-70
2022/09/18 00:59:24;;;;;;;8.63;1.30;;;11.80;99.90;;;;;;4916178;29;20462;-69
2022/09/18 01:01:50;;;;;;;15.13;1.67;;;11.90;99.90;;;;;;4916444;29;20047;-70
2022/09/18 01:04:15;;;;;;;9.88;2.10;;;12.00;99.90;;;;;;4916076;29;20036;-71
2022/09/18 01:06:56;;;;;;;12.30;1.85;;;12.10;99.90;;;;;;4915918;29;20024;-70
2022/09/18 01:09:57;;;;;;;8.70;1.40;;;12.00;99.90;;;;;;4915653;29;20074;-71
2022/09/18 01:12:33;;;;;;;11.30;1.83;;;12.10;99.90;;;;;;4898992;29;20537;-70
2022/09/18 01:15:05;;;;;;;9.88;1.45;;;12.00;99.90;;;;;;4915810;29;20055;-71
2022/09/18 01:17:53;;;;;;;11.48;1.42;;;12.00;99.90;;;;;;4916023;29;20406;-70
2022/09/18 01:20:55;;;;;;;11.98;1.10;;;12.10;99.90;;;;;;4915145;29;20466;-71
2022/09/18 01:23:50;;;;;;;7.60;1.60;;;12.00;99.90;;;;;;4915627;29;20450;-71
2022/09/18 01:26:43;;;;;;;8.60;1.40;;;12.00;99.90;;;;;;4914876;29;20024;-70
2022/09/18 01:29:38;;;;;;;7.25;1.63;;;11.90;99.90;;;;;;4915407;29;20028;-71
2022/09/18 01:32:28;;;;;;;9.75;1.52;;;11.90;99.90;;;;;;4882484;29;20119;-70
2022/09/18 01:35:00;;;;;;;10.63;1.50;;;12.00;99.90;;;;;;4916043;29;20099;-69
2022/09/18 01:37:37;;;;;;;12.30;1.77;;;11.90;99.90;;;;;;4917989;29;20110;-70
2022/09/18 01:40:14;;;;;;;10.38;0.90;;;11.90;99.90;;;;;;4934409;29;20032;-71
2022/09/18 01:42:42;;;;;;;9.23;1.75;;;12.00;99.90;;;;;;4934145;29;20032;-71
2022/09/18 01:45:12;;;;;;;11.13;1.58;;;12.10;99.90;;;;;;4917413;29;20481;-70
2022/09/18 01:47:46;;;;;;;7.78;1.35;;;12.10;99.90;;;;;;4917342;29;20432;-69
2022/09/18 01:50:15;;;;;;;8.90;1.30;;;11.90;99.90;;;;;;4934186;29;20032;-71
2022/09/18 01:52:52;;;;;;;8.88;1.17;;;11.90;99.90;;;;;;4934705;29;20024;-70
2022/09/18 01:55:24;;;;;;;6.70;1.10;;;11.90;99.90;;;;;;4934248;29;20035;-70
2022/09/18 01:58:07;;;;;;;6.10;1.05;;;11.80;99.90;;;;;;4934044;28;20052;-69
2022/09/18 02:00:37;;;;;;;5.28;1.02;;;11.90;99.90;;;;;;4933956;29;20038;-71
2022/09/18 02:03:10;;;;;;;12.27;1.35;;;11.80;99.90;;;;;;4933874;29;20067;-70
2022/09/18 02:05:40;;;;;;;7.85;1.05;;;11.60;99.90;;;;;;4933931;29;20119;-70
2022/09/18 02:08:18;;;;;;;8.77;1.48;;;11.70;99.90;;;;;;4933631;29;20044;-70
2022/09/18 02:10:50;;;;;;;10.65;1.45;;;11.70;99.90;;;;;;4917334;29;20028;-71
2022/09/18 02:13:22;;;;;;;6.50;1.20;;;11.70;99.90;;;;;;4934208;29;20468;-69
2022/09/18 02:15:49;;;;;;;9.68;1.52;;;11.70;99.90;;;;;;4933869;28;20374;-71
2022/09/18 02:18:25;;;;;;;10.50;1.50;;;11.60;99.90;;;;;;4933819;29;20035;-71
2022/09/18 02:20:52;;;;;;;6.03;1.17;;;11.70;99.90;;;;;;4933680;29;20365;-71
2022/09/18 02:23:18;;;;;;;19.30;1.58;;;11.60;99.90;;;;;;4933618;29;20028;-70
2022/09/18 02:25:57;;;;;;;10.60;1.50;;;11.70;99.90;;;;;;4934424;29;20051;-71
2022/09/18 02:28:26;;;;;;;7.70;1.58;;;11.80;99.90;;;;;;4933723;29;20103;-70
2022/09/18 02:30:52;;;;;;;6.60;1.25;;;11.80;99.90;;;;;;4933532;28;20036;-70
2022/09/18 02:33:28;;;;;;;12.90;1.98;;;11.60;99.90;;;;;;4933403;29;20409;-71
2022/09/18 02:36:18;;;;;;;11.60;1.58;;;11.60;99.90;;;;;;4933099;29;20390;-70
2022/09/18 02:38:48;;;;;;;7.93;1.08;;;11.50;99.90;;;;;;4916577;29;20042;-70
2022/09/18 02:41:48;;;;;;;8.10;1.08;;;11.60;99.90;;;;;;4916418;29;20035;-70
2022/09/18 02:44:25;;;;;;;8.15;1.38;;;11.60;99.90;;;;;;4933224;29;20031;-70
2022/09/18 02:47:00;;;;;;;5.70;1.02;;;11.50;99.90;;;;;;4933415;28;20031;-70
2022/09/18 02:50:00;;;;;;;8.05;1.20;;;11.60;99.90;;;;;;4933701;29;20020;-71
2022/09/18 02:52:50;;;;;;;9.40;1.30;;;11.70;99.90;;;;;;4933315;29;20122;-70
2022/09/18 02:55:38;;;;;;;13.95;1.70;;;11.70;99.90;;;;;;4933056;29;20343;-70
2022/09/18 02:58:12;;;;;;;9.68;1.70;;;11.50;99.90;;;;;;4916085;29;20032;-70
2022/09/18 03:00:42;;;;;;;7.25;1.48;;;11.50;99.90;;;;;;4933163;29;20429;-70
2022/09/18 03:03:13;;;;;;;6.70;1.15;;;11.60;99.90;;;;;;4933182;29;20040;-70
2022/09/18 03:05:39;;;;;;;7.55;1.10;;;11.70;99.90;;;;;;4933060;29;20485;-71
2022/09/18 03:08:05;;;;;;;5.72;1.15;;;11.80;99.90;;;;;;4932803;29;20047;-70
2022/09/18 03:10:31;;;;;;;5.95;1.38;;;11.80;99.90;;;;;;4916536;29;20090;-70
2022/09/18 03:12:56;;;;;;;12.55;2.05;;;11.70;99.90;;;;;;4932796;29;20031;-71
2022/09/18 03:15:22;;;;;;;12.43;0.82;;;11.70;99.90;;;;;;4932809;29;20055;-70
2022/09/18 03:17:48;;;;;;;15.25;1.92;;;11.60;99.90;;;;;;4916400;29;20055;-70
2022/09/18 03:20:13;;;;;;;9.52;1.38;;;11.60;99.90;;;;;;4916236;29;20032;-70
2022/09/18 03:22:39;;;;;;;12.73;1.65;;;11.60;99.90;;;;;;4933290;29;20091;-70
2022/09/18 03:25:05;;;;;;;6.70;1.92;;;11.70;99.90;;;;;;4932700;29;20472;-70
2022/09/18 03:27:31;;;;;;;10.63;1.38;;;11.50;99.90;;;;;;4932655;29;20434;-71
2022/09/18 03:29:57;;;;;;;7.18;0.90;;;11.50;99.90;;;;;;4915776;29;20123;-71
2022/09/18 03:32:22;;;;;;;17.40;1.92;;;11.30;99.90;;;;;;4932779;29;20098;-70
2022/09/18 03:34:48;;;;;;;11.43;1.02;;;11.60;99.90;;;;;;4933222;29;20024;-70
2022/09/18 03:37:14;;;;;;;6.93;0.82;;;11.60;99.90;;;;;;4916069;29;20099;-70
2022/09/18 03:39:39;;;;;;;8.80;1.50;;;11.40;99.90;;;;;;4932826;29;20427;-71
2022/09/18 03:42:05;;;;;;;6.60;1.33;;;11.50;99.90;;;;;;4932777;29;20098;-70
2022/09/18 03:44:31;;;;;;;8.45;1.17;;;11.50;99.90;;;;;;4932766;29;20032;-71
2022/09/18 03:46:56;;;;;;;10.77;1.45;;;11.50;99.90;;;;;;4933585;29;20027;-70
2022/09/18 03:49:22;;;;;;;6.80;0.90;;;11.50;99.90;;;;;;4936833;29;20119;-70
2022/09/18 03:51:48;;;;;;;6.90;1.75;;;11.30;99.90;;;;;;4936715;29;20370;-71
2022/09/18 03:54:14;;;;;;;12.05;1.17;;;11.40;99.90;;;;;;4936332;29;20098;-70
2022/09/18 03:56:39;;;;;;;9.20;1.48;;;11.20;99.90;;;;;;4919418;29;20058;-71
2022/09/18 03:59:05;;;;;;;8.13;1.48;;;11.30;99.90;;;;;;4936206;29;20032;-70
2022/09/18 04:01:31;;;;;;;9.45;1.25;;;11.50;99.90;;;;;;4919640;29;20028;-70
2022/09/18 04:03:57;;;;;;;8.18;1.27;;;11.40;99.90;;;;;;4919096;29;20105;-70
2022/09/18 04:06:25;;;;;;;10.85;1.75;;;11.30;99.90;;;;;;4936041;29;20032;-70
2022/09/18 04:08:52;;;;;;;7.47;1.08;;;11.30;99.90;;;;;;4935817;29;20068;-70
2022/09/18 04:11:17;;;;;;;8.00;1.60;;;11.30;99.90;;;;;;4935743;29;20501;-70
2022/09/18 04:13:43;;;;;;;10.73;1.20;;;11.40;99.90;;;;;;4919383;29;20032;-70
2022/09/18 04:16:13;;;;;;;7.43;1.52;;;11.40;99.90;;;;;;4918858;29;20036;-70
2022/09/18 04:18:39;;;;;;;13.18;1.70;;;11.20;99.90;;;;;;4935878;29;20055;-70
2022/09/18 04:21:13;;;;;;;9.82;1.35;;;11.20;99.90;;;;;;4935761;29;20047;-70
2022/09/18 04:23:39;;;;;;;10.95;0.95;;;11.30;99.90;;;;;;4918740;29;20023;-70
2022/09/18 04:26:13;;;;;;;9.07;1.20;;;11.30;99.90;;;;;;4919049;29;20024;-70
2022/09/18 04:28:39;;;;;;;7.72;1.27;;;11.30;99.90;;;;;;4936112;29;20027;-71
2022/09/18 04:31:11;;;;;;;10.52;1.52;;;11.20;99.90;;;;;;4935707;29;20028;-71
2022/09/18 04:33:37;;;;;;;13.75;1.30;;;11.30;99.90;;;;;;4935471;29;20130;-70
2022/09/18 04:36:03;;;;;;;5.78;1.58;;;11.30;99.90;;;;;;4935453;29;20432;-70
2022/09/18 04:38:29;;;;;;;14.45;1.50;;;11.20;99.90;;;;;;4935597;29;20090;-70
2022/09/18 04:40:58;;;;;;;5.65;1.55;;;11.20;99.90;;;;;;4935214;29;20031;-71
2022/09/18 04:43:25;;;;;;;9.15;1.20;;;11.30;99.90;;;;;;4935911;29;20028;-70
2022/09/18 04:45:51;;;;;;;7.60;1.20;;;11.40;99.90;;;;;;4918437;29;20036;-71
2022/09/18 04:48:18;;;;;;;10.43;1.25;;;11.40;99.90;;;;;;4918632;29;20051;-70
2022/09/18 04:50:48;;;;;;;7.38;1.27;;;11.30;99.90;;;;;;4935267;29;20107;-70
2022/09/18 04:53:14;;;;;;;13.75;1.73;;;11.30;99.90;;;;;;4934826;29;20165;-70
2022/09/18 04:55:43;;;;;;;8.57;1.15;;;11.30;99.90;;;;;;4935742;29;20051;-69
2022/09/18 04:58:09;;;;;;;18.58;2.05;;;11.30;99.90;;;;;;4934858;29;20032;-70
2022/09/18 05:00:37;;;;;;;12.50;1.52;;;11.30;99.90;;;;;;4935089;29;20508;-70
2022/09/18 05:03:06;;;;;;;5.55;1.08;;;11.30;99.90;;;;;;4935159;29;20111;-71
2022/09/18 05:05:31;;;;;;;6.68;1.10;;;11.40;99.90;;;;;;4935012;29;20027;-70
2022/09/18 05:07:59;;;;;;;2.78;0.80;;;11.50;99.90;;;;;;4914781;29;20354;-70
2022/09/18 05:10:25;;;;;;;12.17;1.60;;;11.40;99.90;;;;;;4916412;29;20229;-71
2022/09/18 05:12:51;;;;;;;9.27;1.38;;;11.40;99.90;;;;;;4916149;29;20179;-71
2022/09/18 05:15:17;;;;;;;6.43;1.20;;;11.50;99.90;;;;;;4915883;29;20115;-71
2022/09/18 05:17:43;;;;;;;11.70;1.25;;;11.50;99.90;;;;;;4916087;29;20368;-70
2022/09/18 05:20:09;;;;;;;10.43;1.20;;;11.50;99.90;;;;;;4915863;29;20024;-70
2022/09/18 05:22:35;;;;;;;5.85;1.17;;;11.40;99.90;;;;;;4915121;29;20115;-70
2022/09/18 05:25:02;;;;;;;8.48;1.35;;;11.40;99.90;;;;;;4914677;29;20115;-70
2022/09/18 05:27:28;;;;;;;15.10;2.03;;;11.40;99.90;;;;;;4914634;29;20028;-71
2022/09/18 05:29:53;;;;;;;10.55;1.17;;;11.40;99.90;;;;;;4915499;29;20055;-71
2022/09/18 05:32:19;;;;;;;9.98;1.60;;;11.50;99.90;;;;;;4915592;29;20548;-69
2022/09/18 05:34:48;;;;;;;8.52;1.15;;;11.60;99.90;;;;;;4915881;29;20054;-71
2022/09/18 05:37:15;;;;;;;15.40;2.55;;;11.60;99.90;;;;;;4915463;29;20443;-71
2022/09/18 05:39:42;;;;;;;6.00;0.98;;;11.60;99.90;;;;;;4915282;29;20039;-71
2022/09/18 05:42:08;;;;;;;17.73;1.35;;;11.80;99.90;;;;;;4915180;29;20032;-71
2022/09/18 05:44:33;;;;;;;6.55;0.98;;;11.70;99.90;;;;;;4915263;29;20047;-70
2022/09/18 05:47:00;;;;;;;7.47;0.98;;;11.60;99.90;;;;;;4914230;28;20366;-70
2022/09/18 05:49:25;;;;;;;7.70;1.08;;;11.70;99.90;;;;;;4914630;29;20074;-70
2022/09/18 05:51:53;;;;;;;7.75;1.25;;;11.80;99.90;;;;;;4915417;29;20459;-70
2022/09/18 05:54:19;;;;;;;5.68;1.05;;;11.80;99.90;;;;;;4914944;29;20040;-70
2022/09/18 05:56:45;;;;;;;11.13;1.50;;;11.80;99.90;;;;;;4914763;29;20473;-69
2022/09/18 05:59:11;;;;;;;13.20;2.30;;;11.70;99.90;;;;;;4913922;29;20042;-71
2022/09/18 06:01:37;;;;;;;11.90;1.45;;;11.70;99.90;;;;;;4915362;29;20108;-70
2022/09/18 06:04:04;;;;;;;13.95;1.52;;;11.80;99.90;;;;;;4913978;29;20060;-71
2022/09/18 06:06:30;;;;;;;5.78;1.48;;;11.80;99.90;;;;;;4914839;29;20033;-69
2022/09/18 06:08:56;;;;;;;11.68;1.40;;;11.90;99.90;;;;;;4913613;29;20051;-72
2022/09/18 06:11:22;;;;;;;7.72;1.40;;;12.00;99.90;;;;;;4914262;29;20482;-73
2022/09/18 06:13:50;;;;;;;5.80;1.17;;;12.00;99.90;;;;;;4915039;29;20032;-70
2022/09/18 06:16:16;;;;;;;;;;;11.90;99.90;;;;;;4915242;29;20028;-71
2022/09/18 06:18:42;;;;;;;8.55;1.15;;;12.00;99.90;;;;;;4914822;29;20379;-69
2022/09/18 06:21:13;;;;;;;12.93;1.55;;;12.00;99.90;;;;;;4914797;29;20032;-71
2022/09/18 06:23:41;;;;;;;16.23;2.00;;;12.00;99.90;;;;;;4914538;28;20032;-70
2022/09/18 06:26:12;;;;;;;9.63;1.27;;;12.00;99.90;;;;;;4914605;29;20032;-71
2022/09/18 06:28:38;;;;;;;12.35;1.25;;;11.90;99.90;;;;;;4914977;29;20028;-69
2022/09/18 06:31:14;;;;;;;12.43;1.48;;;11.90;99.90;;;;;;4913324;29;20339;-70
2022/09/18 06:33:39;;;;;;;10.35;1.35;;;12.00;99.90;;;;;;4914336;29;20131;-70
2022/09/18 06:36:13;;;;;;;7.10;1.38;;;12.10;99.90;;;;;;4914400;29;20126;-71
2022/09/18 06:38:39;;;;;;;8.10;1.02;;;12.10;99.90;;;;;;4914512;29;20356;-71
2022/09/18 06:41:14;;;;;;;15.48;2.05;;;12.10;99.90;;;;;;4914654;29;20111;-71
2022/09/18 06:43:40;;;;;;;13.68;1.30;;;12.20;99.90;;;;;;4915005;29;20466;-71
2022/09/18 06:46:15;;;;;;;9.95;1.75;;;12.20;99.90;;;;;;4914476;29;20068;-70
2022/09/18 06:48:41;;;;;;;9.07;1.20;;;12.40;99.90;;;;;;4913329;29;20029;-72
2022/09/18 06:51:12;;;;;;;14.65;2.30;;;12.50;99.90;;;;;;4914266;29;20099;-71
2022/09/18 06:53:38;;;;;;;7.53;1.20;;;12.60;99.90;;;;;;4913092;29;20047;-71
2022/09/18 06:56:04;;;;;;;12.35;1.42;;;12.60;99.90;;;;;;4914613;29;20095;-71
2022/09/18 06:58:30;;;;;;;10.40;1.17;;;12.40;99.90;;;;;;4914643;29;20530;-70
2022/09/18 07:00:58;;;;;;;13.13;1.58;;;12.50;99.90;;;;;;4912982;29;20131;-71
2022/09/18 07:03:24;;;;;;;8.07;1.95;;;12.50;99.90;;;;;;4913017;29;20059;-72
2022/09/18 07:05:49;;;;;;;10.38;1.48;;;12.60;99.90;;;;;;4900703;29;20475;-71
2022/09/18 07:08:15;;;;;;;17.75;1.50;;;12.70;99.90;;;;;;4882673;29;20036;-70
2022/09/18 07:10:41;;;;;;;6.72;1.50;;;12.70;99.90;;;;;;4894600;29;20447;-71
2022/09/18 07:13:07;;;;;;;6.82;1.25;;;12.60;99.90;;;;;;4895254;29;20041;-69
2022/09/18 07:15:33;;;;;;;7.38;1.20;;;12.70;99.90;;;;;;4895374;29;20470;-73
2022/09/18 07:18:00;;;;;;;9.18;1.38;;;12.80;99.90;;;;;;4895127;29;20044;-72
2022/09/18 07:20:26;;;;;;;10.35;1.65;;;12.80;99.90;;;;;;4894049;29;20033;-72
2022/09/18 07:22:57;;;;;;;12.98;1.63;;;13.10;99.90;;;;;;4899276;29;20028;-71
2022/09/18 07:25:24;;;;;;;7.90;1.25;;;13.10;99.90;;;;;;4899290;29;20017;-70
2022/09/18 07:27:50;;;;;;;10.00;1.45;;;13.10;99.90;;;;;;4898906;29;20060;-71
2022/09/18 07:30:16;;;;;;;8.85;1.10;;;13.10;99.90;;;;;;4898837;29;20056;-71
2022/09/18 07:32:42;;;;;;;8.73;1.75;;;13.30;99.90;;;;;;4905994;29;20028;-71
2022/09/18 07:35:09;;;;;;;9.05;1.42;;;13.20;99.90;;;;;;4917633;29;20032;-70
2022/09/18 07:37:36;;;;;;;7.35;1.40;;;13.20;99.90;;;;;;4918064;29;20388;-72
2022/09/18 07:40:02;;;;;;;8.90;1.20;;;13.30;99.90;;;;;;4917493;29;20035;-72
2022/09/18 07:42:28;;;;;;;9.00;1.38;;;13.30;99.90;;;;;;4917724;29;20119;-72
2022/09/18 07:44:53;;;;;;;10.60;1.40;;;13.20;99.90;;;;;;4916401;29;20104;-71
2022/09/18 07:47:19;;;;;;;10.45;1.98;;;13.30;99.90;;;;;;4917306;29;20028;-71
2022/09/18 07:49:45;;;;;;;9.25;1.52;;;13.50;99.90;;;;;;4917848;29;20032;-71
2022/09/18 07:52:10;;;;;;;9.15;1.70;;;13.50;99.90;;;;;;4917285;29;20480;-72
2022/09/18 07:54:36;;;;;;;6.03;0.85;;;13.30;99.90;;;;;;4917169;29;20040;-72
2022/09/18 07:57:02;;;;;;;13.70;2.13;;;13.30;99.90;;;;;;4917173;29;20378;-71
2022/09/18 07:59:27;;;;;;;16.58;2.17;;;13.30;99.90;;;;;;4917011;29;20090;-71
2022/09/18 08:01:54;;;;;;;5.78;1.20;;;13.30;99.90;;;;;;4917486;29;20175;-72
2022/09/18 08:04:21;;;;;;;4.30;1.58;;;13.30;99.90;;;;;;4916416;29;20260;-72
2022/09/18 08:06:53;;;;;;;6.38;1.10;;;13.30;99.90;;;;;;4916928;29;20062;-69
2022/09/18 08:09:20;;;;;;;14.75;1.63;;;13.30;99.90;;;;;;4916657;29;20402;-71
2022/09/18 08:11:46;;;;;;;7.30;1.13;;;13.30;99.90;;;;;;4916847;29;20054;-71
2022/09/18 08:14:12;;;;;;;4.07;1.08;;;13.20;99.90;;;;;;4916884;29;20458;-70
2022/09/18 08:16:38;;;;;;;9.88;1.45;;;13.30;99.90;;;;;;4916168;29;20529;-71
2022/09/18 08:19:03;;;;;;;5.47;1.33;;;13.60;99.90;;;;;;4915808;29;20382;-72
2022/09/18 08:21:30;;;;;;;8.30;1.77;;;13.70;99.90;;;;;;4917066;29;20072;-72
2022/09/18 08:23:56;;;;;;;4.97;1.08;;;13.80;99.90;;;;;;4916658;29;20422;-70
2022/09/18 08:26:22;;;;;;;8.10;0.98;;;14.10;99.90;;;;;;4916571;29;20040;-71
2022/09/18 08:28:47;;;;;;;6.80;0.90;;;14.20;99.10;;;;;;4916880;29;20043;-70
2022/09/18 08:31:13;;;;;;;4.40;0.75;;;14.10;99.30;;;;;;4915474;29;20449;-70
2022/09/18 08:33:39;;;;;;;5.70;0.82;;;13.90;99.40;;;;;;4911405;29;20036;-70
2022/09/18 08:36:05;;;;;;;7.00;1.02;;;14.00;99.50;;;;;;4916820;29;20054;-69
2022/09/18 08:38:31;;;;;;;5.50;1.08;;;13.90;99.50;;;;;;4916726;29;20066;-69
2022/09/18 08:41:34;;;;;;;7.55;1.40;;;13.90;99.50;;;;;;4916694;29;20146;-70
2022/09/18 08:44:11;;;;;;;10.30;1.00;;;14.00;99.70;;;;;;4916928;29;20036;-70
2022/09/18 08:46:42;;;;;;;4.43;0.80;;;14.00;99.50;;;;;;4900036;29;20042;-70
2022/09/18 08:49:31;;;;;;;8.07;1.38;;;14.00;99.60;;;;;;4916972;29;20032;-71
2022/09/18 08:52:02;;;;;;;7.97;1.38;;;13.90;99.50;;;;;;4916638;29;20039;-70
2022/09/18 08:54:49;;;;;;;4.25;1.20;;;14.10;99.60;;;;;;4916534;29;20051;-72
2022/09/18 08:57:43;;;;;;;8.48;1.00;;;14.10;99.60;;;;;;4915631;29;20111;-72
2022/09/18 09:00:18;;;;;;;3.28;0.90;;;14.10;99.30;;;;;;4916525;29;20115;-70
2022/09/18 09:03:00;;;;;;;10.15;1.77;;;13.90;99.50;;;;;;4916267;29;20122;-71
2022/09/18 09:05:42;;;;;;;9.15;1.38;;;14.00;99.70;;;;;;4916581;29;20063;-72
2022/09/18 09:08:08;;;;;;;7.38;1.13;;;13.90;99.60;;;;;;4916224;29;20040;-70
2022/09/18 09:11:02;;;;;;;5.72;1.35;;;14.20;99.60;;;;;;4916779;29;20119;-70
2022/09/18 09:13:50;;;;;;;7.72;1.02;;;14.10;99.30;;;;;;4896477;29;20056;-71
2022/09/18 09:16:16;;;;;;;;;;;14.50;99.50;;;;;;4916525;29;20045;-71
2022/09/18 09:19:01;;;;;;;6.70;1.17;;;14.40;99.30;;;;;;4898726;29;20269;-70
2022/09/18 09:21:41;;;;;;;3.83;0.93;;;14.20;98.90;;;;;;4897345;29;20033;-72
2022/09/18 09:24:16;;;;;;;6.68;0.85;;;14.30;99.20;;;;;;4897068;29;20032;-71
2022/09/18 09:26:42;;;;;;;3.28;1.00;;;14.20;99.30;;;;;;4897039;29;20025;-73
2022/09/18 09:29:36;;;;;;;4.05;1.10;;;14.10;99.40;;;;;;4896879;29;20072;-72
2022/09/18 09:32:27;;;;;;;5.43;1.08;;;14.20;99.90;;;;;;4893969;29;20092;-72
2022/09/18 09:35:19;;;;;;;7.70;1.45;;;14.40;99.20;;;;;;4896411;29;20112;-71
2022/09/18 09:37:47;;;;;;;4.88;1.10;;;14.50;99.20;;;;;;4870792;29;20036;-71
2022/09/18 09:40:31;;;;;;;3.67;0.82;;;14.80;98.40;;;;;;4896462;29;20167;-70
2022/09/18 09:43:23;;;;;;;3.88;1.33;;;14.80;98.00;;;;;;4896255;29;20095;-72
2022/09/18 09:45:55;;;;;;;7.38;1.20;;;15.00;98.30;;;;;;4895065;29;20035;-72
2022/09/18 09:48:42;;;;;;;3.33;0.85;;;14.90;98.10;;;;;;4896310;29;20391;-72
2022/09/18 09:51:34;;;;;;;5.53;1.40;;;15.00;97.80;;;;;;4896278;29;20069;-71
2022/09/18 09:54:01;;;;;;;4.25;0.93;;;15.00;97.30;;;;;;4896020;29;20068;-70
2022/09/18 09:56:51;;;;;;;6.53;1.00;;;15.00;97.60;;;;;;4895979;29;20083;-72
2022/09/18 09:59:33;;;;;;;6.18;1.00;;;14.80;97.60;;;;;;4894750;29;20511;-72
2022/09/18 10:02:56;;;;;;;3.22;0.60;;;14.50;97.80;;;;;;4895096;29;20119;-72
2022/09/18 10:05:31;;;;;;;4.20;0.65;;;14.50;97.80;;;;;;4819582;29;20405;-71
2022/09/18 10:07:59;;;;;;;2.83;0.80;;;14.50;98.00;;;;;;4819088;29;20085;-71
2022/09/18 10:10:44;;;;;;;6.35;0.90;;;14.80;97.70;;;;;;4832839;29;20123;-71
2022/09/18 10:13:28;;;;;;;5.55;0.77;;;15.30;96.90;;;;;;4857556;29;20066;-71
2022/09/18 10:16:25;;;;;;;4.88;0.70;;;15.10;97.00;;;;;;4858558;29;20025;-72
2022/09/18 10:18:51;;;;;;;4.47;0.85;;;15.20;97.30;;;;;;4862765;29;20136;-70
2022/09/18 10:21:27;;;;;;;3.65;0.90;;;15.30;96.40;;;;;;4877153;29;20112;-71
2022/09/18 10:24:17;;;;;;;5.85;1.20;;;15.10;96.40;;;;;;4860073;29;20551;-72
2022/09/18 10:26:48;;;;;;;4.93;0.98;;;15.00;96.40;;;;;;4876837;29;20029;-69
2022/09/18 10:29:17;;;;;;;2.95;0.68;;;15.00;96.50;;;;;;4876720;29;20052;-73
2022/09/18 10:31:58;;;;;;;3.80;0.80;;;15.30;96.90;;;;;;4877271;29;20025;-71
2022/09/18 10:34:39;;;;;;;4.05;0.93;;;16.00;95.70;;;;;;4875887;29;20380;-71
2022/09/18 10:37:11;;;;;;;1.75;0.40;;;16.80;95.80;;;;;;4876905;29;20037;-72
2022/09/18 10:39:53;;;;;;;3.97;1.08;;;17.50;93.60;;;;;;4876581;29;20515;-71
2022/09/18 10:42:21;;;;;;;3.35;0.88;;;17.30;93.80;;;;;;4876551;29;20040;-74
2022/09/18 10:44:53;;;;;;;4.60;0.80;;;16.70;94.10;;;;;;4876572;29;20025;-72
2022/09/18 10:47:28;;;;;;;4.28;0.73;;;16.70;94.50;;;;;;4876855;29;20043;-71
2022/09/18 10:49:58;;;;;;;6.38;1.10;;;16.20;94.70;;;;;;4876613;29;20021;-70
2022/09/18 10:52:31;;;;;;;2.70;0.75;;;16.20;95.30;;;;;;4876316;29;20029;-72
2022/09/18 10:54:59;;;;;;;5.68;0.82;;;15.70;95.10;;;;;;4876629;29;20049;-69
2022/09/18 10:57:33;;;;;;;6.25;1.40;;;15.50;95.10;;;;;;4876204;29;20045;-72
2022/09/18 10:59:59;;;;;;;4.30;0.90;;;15.50;95.70;;;;;;4876718;29;20032;-71
2022/09/18 11:02:28;;;;;;;5.18;0.90;;;15.10;96.00;;;;;;4876936;29;20037;-72
2022/09/18 11:04:54;;;;;;;4.90;0.93;;;15.00;96.00;;;;;;4876617;29;20105;-71
2022/09/18 11:07:23;;;;;;;3.22;0.68;;;15.20;95.60;;;;;;4860584;29;20088;-71
2022/09/18 11:09:49;;;;;;;3.28;0.70;;;14.70;95.90;;;;;;4876176;29;20052;-71
2022/09/18 11:12:27;;;;;;;1.73;0.50;;;14.70;96.00;;;;;;4876765;29;20044;-72
2022/09/18 11:15:06;;;;;;;8.23;0.68;;;14.70;96.20;;;;;;4876582;29;20147;-70
2022/09/18 11:17:35;;;;;;;3.25;0.70;;;14.60;96.30;;;;;;4860166;29;20475;-72
2022/09/18 11:20:03;;;;;;;3.83;1.00;;;14.40;96.70;;;;;;4876633;29;20029;-71
2022/09/18 11:22:41;;;;;;;4.10;0.70;;;14.70;96.60;;;;;;4876918;29;20419;-71
2022/09/18 11:25:16;;;;;;;5.93;0.85;;;14.80;96.20;;;;;;4876497;29;20048;-72
2022/09/18 11:27:48;;;;;;;4.55;0.82;;;14.60;96.00;;;;;;4876340;29;20041;-71
2022/09/18 11:30:29;;;;;;;2.85;1.00;;;14.60;96.30;;;;;;4876538;29;20460;-71
2022/09/18 11:33:14;;;;;;;4.20;0.60;;;14.40;95.80;;;;;;4859410;29;20092;-70
2022/09/18 11:35:45;;;;;;;1.90;0.43;;;14.50;95.20;;;;;;4876513;29;20033;-71
2022/09/18 11:38:18;;;;;;;2.83;0.60;;;14.40;95.40;;;;;;4876291;29;20064;-71
2022/09/18 11:40:49;;;;;;;5.97;0.90;;;14.30;95.40;;;;;;4876674;29;20363;-71
2022/09/18 11:43:21;;;;;;;2.58;0.60;;;14.50;95.40;;;;;;4876297;29;20104;-72
2022/09/18 11:46:17;;;;;;;3.15;0.70;;;14.70;95.30;;;;;;4876185;29;20040;-71
2022/09/18 11:49:04;;;;;;;0.80;0.50;;;14.80;95.40;;;;;;4876038;29;20044;-71
2022/09/18 11:51:57;;;;;;;4.60;0.57;;;14.80;95.20;;;;;;4875033;29;20048;-71
2022/09/18 11:54:35;;;;;;;1.65;0.50;;;14.70;95.60;;;;;;4875990;29;20108;-72
2022/09/18 11:57:10;;;;;;;3.40;0.65;;;14.70;95.40;;;;;;4876098;29;20037;-72
2022/09/18 11:59:41;;;;;;;2.20;0.80;;;14.70;95.80;;;;;;4876292;29;20105;-73
2022/09/18 12:02:28;;;;;;;7.10;2.83;;;14.70;95.70;;;;;;4859432;29;20424;-71
2022/09/18 12:05:08;;;;;;;3.80;0.90;;;14.50;96.40;;;;;;4875969;29;20039;-71
2022/09/18 12:07:55;;;;;;;1.63;0.45;;;14.20;96.90;;;;;;4875979;29;20040;-73
2022/09/18 12:10:43;;;;;;;1.77;0.50;;;14.40;97.00;;;;;;4898405;29;20067;-71
2022/09/18 12:13:24;;;;;;;3.10;0.85;;;14.40;97.00;;;;;;4843231;29;20044;-72
2022/09/18 12:16:17;;;;;;;2.75;0.88;;;14.60;97.10;;;;;;4879410;29;20047;-72
2022/09/18 12:19:08;;;;;;;3.92;0.85;;;14.60;96.70;;;;;;4879608;29;20041;-69
2022/09/18 12:21:50;;;;;;;1.45;0.70;;;14.40;97.10;;;;;;4879421;29;20039;-74
2022/09/18 12:24:17;;;;;;;4.22;1.05;;;14.50;97.20;;;;;;4879348;29;20048;-73
2022/09/18 12:26:46;;;;;;;4.22;0.75;;;14.70;97.10;;;;;;4879255;29;20064;-72
2022/09/18 12:29:34;;;;;;;5.55;0.70;;;14.60;97.00;;;;;;4877997;29;20507;-71
2022/09/18 12:32:15;;;;;;;2.92;0.40;;;14.50;97.00;;;;;;4879106;29;20041;-71
2022/09/18 12:34:47;;;;;;;6.55;0.77;;;14.50;96.80;;;;;;4879498;29;20101;-72
2022/09/18 12:37:33;;;;;;;4.68;0.88;;;14.50;96.90;;;;;;4879114;29;20499;-71
2022/09/18 12:40:08;;;;;;;1.83;0.82;;;14.50;96.80;;;;;;4879259;29;20465;-72
2022/09/18 12:43:05;;;;;;;2.95;0.65;;;14.60;96.90;;;;;;4879254;29;20372;-71
2022/09/18 12:45:53;;;;;;;2.38;0.70;;;14.60;97.10;;;;;;4879131;29;20037;-71
2022/09/18 12:48:38;;;;;;;3.35;0.50;;;14.60;96.90;;;;;;4878853;29;20515;-71
2022/09/18 12:51:42;;;;;;;2.63;0.73;;;14.60;96.60;;;;;;4879125;29;20407;-71
2022/09/18 12:54:38;;;;;;;3.50;1.30;;;14.70;96.60;;;;;;4878601;29;20044;-72
2022/09/18 12:57:26;;;;;;;5.57;1.25;;;14.80;96.20;;;;;;4878896;29;20661;-73
2022/09/18 13:00:01;;;;;;;2.40;0.80;;;15.00;96.10;;;;;;4878704;29;20462;-75
2022/09/18 13:02:51;;;;;;;3.35;0.45;;;14.90;95.90;;;;;;4862126;29;20185;-75
2022/09/18 13:05:31;;;;;;;1.88;0.65;;;14.90;96.00;;;;;;4878676;29;20428;-75
2022/09/18 13:08:13;;;;;;;3.53;0.80;;;14.80;96.00;;;;;;4878339;29;20460;-73
2022/09/18 13:10:44;;;;;;;3.70;1.00;;;15.00;95.90;;;;;;4878954;29;20025;-74
2022/09/18 13:13:23;;;;;;;2.60;0.60;;;15.00;95.90;;;;;;4861612;29;20029;-75
2022/09/18 13:16:00;;;;;;;1.83;0.55;;;15.10;96.20;;;;;;4878743;29;20033;-74